Pagina principale
METAR-TAF:

METAR-TAF

Aeroporti :

Aeroporto di Treviso-Istrana

Treviso, Italia

latitudine: 45-41N, longitudine: 012-06E, altezza: 45 m

Osservazione

Il bollettino è stato emesso 1 ora e 8 minuti fa, alle 14:55 UTC
Vento 4 kt da est/sud-est
Temperature 22°C
Umidità 53%
Pressione 1015 hPa
Visibilità 10 km o più
Nubi sparse ad un'altezza di 3000 ft
Nubi sparse ad un'altezza di 6000 ft

METAR: LIPS 131455Z 12004KT 9999 SCT030 SCT060 22/12 Q1015 RMK BKN VIS MIN 9999 WIND THR26 /////KT WIND THR08 14002KT BLU

Ora: 18:03 (16:03 UTC)

Previsione

Il bollettino è stato emesso 2 ore e 3 minuti fa, alle 14:00 UTC
Previsione valida dal 13 alle 15 UTC al 13 alle 24 UTC
Vento 3 kt da direzioni variabili
Visibilità 10 km o più
Nubi sparse ad un'altezza di 3000 ft

TAF: LIPS 131400Z 1315/1324 VRB03KT 9999 SCT030

Osservazioni e previsioni meteorologiche di più di 4000 aeroporti (messaggi METAR e TAF).

Le stazioni disponibili sono rappresentate dai dischi gialli e rossi sulla carta.

Puntare il mouse per vedere il nome della stazione.

Clicca sopra per visualizzare le osservazioni e previsioni meteorologiche.

Per cambiare la mappa : fare clic sui pulsanti verdi con una croce nera per ingrandire, il pulsante verde con un trattino per diminuire, o sulla freccia verde per le mappe adiacenti.


METAR-TAF: